Portada
METAR-TAF:

METAR-TAF

Aeroports :

Poplar Bluff Municipal Airport

Poplar Bluff, Missouri, Estats Units d'Amèrica

latitud: 36-46-14N, longitud: 090-19-20W, altitud: 100 m

Observació

L'informe es va fer fa 37 minuts, a les 22:53 UTC
Vent 11 kt del Sud
Temperatura 29°C
Humitat 62%
Pressió 1011 hPa
Visibilitat: 16.1 km
Cel clar

METAR: KPOF 242253Z AUTO 18011KT 10SM CLR 29/21 A2986 RMK AO2 SLP107 T02940206

Hora: 18:30 (23:30 UTC)


TAF: manca

Observacions i pronòstics meteorològics de més de 4000 aeroports (METAR i TAF).

Les estacions disponibles són els punts grocs i vermells al mapa.

Posi el ratolí al punt desitjat per veure el nom de l'estació.

Feu clic per veure les observacions i els pronòstics meteorològics.

Per canviar el mapa: feu clic els botons verds amb una creu de color negre per apropar; al botó verd amb un guió per allunyar la imatge; o en les fletxes verdes per a mapes adjacents.


METAR-TAF: